sensor_id;sensor_type;location;lat;lon;timestamp;pressure;altitude;pressure_sealevel;temperature;humidity
78671;BME280;68277;52.724;6.516;2023-04-16T00:00:06;102123.72;;;8.06;91.63
78671;BME280;68277;52.724;6.516;2023-04-16T00:02:38;102115.78;;;7.98;93.15
78671;BME280;68277;52.724;6.516;2023-04-16T00:05:04;102075.19;;;7.78;93.85
78671;BME280;68277;52.724;6.516;2023-04-16T00:07:29;102059.28;;;7.71;92.54
78671;BME280;68277;52.724;6.516;2023-04-16T00:09:55;102117.53;;;7.98;92.18
78671;BME280;68277;52.724;6.516;2023-04-16T00:12:22;102128.16;;;8.05;91.72
78671;BME280;68277;52.724;6.516;2023-04-16T00:14:47;102122.88;;;8.05;93.32
78671;BME280;68277;52.724;6.516;2023-04-16T00:17:14;102119.31;;;8.02;93.24
78671;BME280;68277;52.724;6.516;2023-04-16T00:19:39;102129.00;;;8.04;92.76
78671;BME280;68277;52.724;6.516;2023-04-16T00:22:05;102127.19;;;7.99;93.03
78671;BME280;68277;52.724;6.516;2023-04-16T00:24:30;102081.31;;;7.74;92.77
78671;BME280;68277;52.724;6.516;2023-04-16T00:26:56;102075.13;;;7.72;91.71
78671;BME280;68277;52.724;6.516;2023-04-16T00:29:22;102082.19;;;7.76;92.50
78671;BME280;68277;52.724;6.516;2023-04-16T00:31:47;102111.31;;;7.91;92.37
78671;BME280;68277;52.724;6.516;2023-04-16T00:34:13;102115.72;;;7.92;93.76
78671;BME280;68277;52.724;6.516;2023-04-16T00:36:38;102104.19;;;7.81;92.14
78671;BME280;68277;52.724;6.516;2023-04-16T00:39:04;102115.72;;;7.94;93.43
78671;BME280;68277;52.724;6.516;2023-04-16T00:41:29;102080.38;;;7.69;91.79
78671;BME280;68277;52.724;6.516;2023-04-16T00:43:55;102093.63;;;7.77;92.54
78671;BME280;68277;52.724;6.516;2023-04-16T00:46:24;102119.28;;;7.96;92.12
78671;BME280;68277;52.724;6.516;2023-04-16T00:48:52;102138.63;;;7.99;93.52
78671;BME280;68277;52.724;6.516;2023-04-16T00:51:18;102142.19;;;8.04;94.13
78671;BME280;68277;52.724;6.516;2023-04-16T00:53:45;102096.22;;;7.75;92.74
78671;BME280;68277;52.724;6.516;2023-04-16T00:56:11;102136.84;;;7.97;92.31
78671;BME280;68277;52.724;6.516;2023-04-16T00:58:37;102125.41;;;7.93;92.02
78671;BME280;68277;52.724;6.516;2023-04-16T01:01:04;102143.91;;;7.99;91.99
78671;BME280;68277;52.724;6.516;2023-04-16T01:03:36;102134.19;;;7.95;93.63
78671;BME280;68277;52.724;6.516;2023-04-16T01:06:04;102139.50;;;7.98;92.07
78671;BME280;68277;52.724;6.516;2023-04-16T01:08:39;102153.63;;;8.05;92.36
78671;BME280;68277;52.724;6.516;2023-04-16T01:11:06;102084.72;;;7.64;93.23
78671;BME280;68277;52.724;6.516;2023-04-16T01:13:32;102148.34;;;8.05;92.08
78671;BME280;68277;52.724;6.516;2023-04-16T01:15:58;102152.72;;;8.04;92.28
78671;BME280;68277;52.724;6.516;2023-04-16T01:18:29;102154.50;;;8.05;92.46
78671;BME280;68277;52.724;6.516;2023-04-16T01:20:55;102149.25;;;8.05;92.08
78671;BME280;68277;52.724;6.516;2023-04-16T01:23:21;102136.84;;;7.95;92.27
78671;BME280;68277;52.724;6.516;2023-04-16T01:25:47;102158.00;;;8.06;92.22
78671;BME280;68277;52.724;6.516;2023-04-16T01:28:13;102158.91;;;8.06;92.08
78671;BME280;68277;52.724;6.516;2023-04-16T01:30:38;102135.06;;;7.93;92.74
78671;BME280;68277;52.724;6.516;2023-04-16T01:33:20;102128.88;;;7.92;91.55
78671;BME280;68277;52.724;6.516;2023-04-16T01:35:46;102158.91;;;8.06;91.88
78671;BME280;68277;52.724;6.516;2023-04-16T01:38:14;102129.75;;;7.88;92.22
78671;BME280;68277;52.724;6.516;2023-04-16T01:40:39;102151.88;;;8.07;92.66
78671;BME280;68277;52.724;6.516;2023-04-16T01:43:05;102157.16;;;8.08;92.55
78671;BME280;68277;52.724;6.516;2023-04-16T01:45:33;102155.41;;;8.07;92.93
78671;BME280;68277;52.724;6.516;2023-04-16T01:47:58;102153.63;;;8.08;93.58
78671;BME280;68277;52.724;6.516;2023-04-16T01:50:24;102077.66;;;7.62;92.71
78671;BME280;68277;52.724;6.516;2023-04-16T01:52:49;102088.28;;;7.68;91.94
78671;BME280;68277;52.724;6.516;2023-04-16T01:55:15;102103.31;;;7.81;92.79
78671;BME280;68277;52.724;6.516;2023-04-16T01:57:40;102116.50;;;7.81;92.37
78671;BME280;68277;52.724;6.516;2023-04-16T02:00:06;102119.19;;;7.88;92.55
78671;BME280;68277;52.724;6.516;2023-04-16T02:02:44;102143.03;;;8.02;93.12
78671;BME280;68277;52.724;6.516;2023-04-16T02:05:12;102121.78;;;7.85;92.72
78671;BME280;68277;52.724;6.516;2023-04-16T02:07:37;102129.78;;;7.91;91.70
78671;BME280;68277;52.724;6.516;2023-04-16T02:10:03;102141.25;;;7.99;92.78
78671;BME280;68277;52.724;6.516;2023-04-16T02:12:31;102142.19;;;8.03;91.82
78671;BME280;68277;52.724;6.516;2023-04-16T02:14:56;102145.63;;;7.99;92.03
78671;BME280;68277;52.724;6.516;2023-04-16T02:17:26;102158.91;;;8.08;92.58
78671;BME280;68277;52.724;6.516;2023-04-16T02:20:03;102114.75;;;7.81;92.24
78671;BME280;68277;52.724;6.516;2023-04-16T02:22:33;102104.13;;;7.74;92.80
78671;BME280;68277;52.724;6.516;2023-04-16T02:24:58;102117.34;;;7.80;92.60
78671;BME280;68277;52.724;6.516;2023-04-16T02:27:24;102139.47;;;7.95;93.56
78671;BME280;68277;52.724;6.516;2023-04-16T02:29:55;102053.78;;;7.45;92.38
78671;BME280;68277;52.724;6.516;2023-04-16T02:32:20;102092.66;;;7.67;92.34
78671;BME280;68277;52.724;6.516;2023-04-16T02:34:46;102158.03;;;8.07;92.33
78671;BME280;68277;52.724;6.516;2023-04-16T02:37:13;102150.97;;;8.06;92.22
78671;BME280;68277;52.724;6.516;2023-04-16T02:39:39;102120.94;;;7.86;92.74
78671;BME280;68277;52.724;6.516;2023-04-16T02:42:05;102120.06;;;7.84;92.22
78671;BME280;68277;52.724;6.516;2023-04-16T02:44:30;102131.50;;;7.89;92.06
78671;BME280;68277;52.724;6.516;2023-04-16T02:46:56;102153.53;;;7.99;92.87
78671;BME280;68277;52.724;6.516;2023-04-16T02:49:22;102117.34;;;7.80;91.71
78671;BME280;68277;52.724;6.516;2023-04-16T02:51:47;102149.16;;;7.98;93.23
78671;BME280;68277;52.724;6.516;2023-04-16T02:54:13;102142.03;;;7.89;91.87
78671;BME280;68277;52.724;6.516;2023-04-16T02:56:38;102125.28;;;7.81;91.60
78671;BME280;68277;52.724;6.516;2023-04-16T02:59:04;102127.03;;;7.79;91.54
78671;BME280;68277;52.724;6.516;2023-04-16T03:01:30;102119.97;;;7.77;92.31
78671;BME280;68277;52.724;6.516;2023-04-16T03:03:55;102162.34;;;7.99;91.72
78671;BME280;68277;52.724;6.516;2023-04-16T03:06:21;102155.28;;;7.95;91.70
78671;BME280;68277;52.724;6.516;2023-04-16T03:08:47;102097.00;;;7.61;91.27
78671;BME280;68277;52.724;6.516;2023-04-16T03:11:12;102129.63;;;7.78;91.99
78671;BME280;68277;52.724;6.516;2023-04-16T03:13:39;102119.00;;;7.69;91.64
78671;BME280;68277;52.724;6.516;2023-04-16T03:16:05;102113.69;;;7.63;91.44
78671;BME280;68277;52.724;6.516;2023-04-16T03:18:30;102121.59;;;7.66;91.45
78671;BME280;68277;52.724;6.516;2023-04-16T03:20:56;102139.28;;;7.74;90.36
78671;BME280;68277;52.724;6.516;2023-04-16T03:23:21;102142.81;;;7.76;91.52
78671;BME280;68277;52.724;6.516;2023-04-16T03:25:47;102135.69;;;7.69;91.87
78671;BME280;68277;52.724;6.516;2023-04-16T03:28:16;102159.53;;;7.81;92.00
78671;BME280;68277;52.724;6.516;2023-04-16T03:30:41;102126.78;;;7.56;91.28
78671;BME280;68277;52.724;6.516;2023-04-16T03:33:07;102135.66;;;7.65;92.40
78671;BME280;68277;52.724;6.516;2023-04-16T03:35:33;102174.50;;;7.84;90.80
78671;BME280;68277;52.724;6.516;2023-04-16T03:37:59;102170.94;;;7.79;90.86
78671;BME280;68277;52.724;6.516;2023-04-16T03:40:25;102151.50;;;7.69;91.28
78671;BME280;68277;52.724;6.516;2023-04-16T03:42:51;102163.84;;;7.72;91.25
78671;BME280;68277;52.724;6.516;2023-04-16T03:45:17;102175.31;;;7.77;91.29
78671;BME280;68277;52.724;6.516;2023-04-16T03:47:44;102177.94;;;7.77;91.39
78671;BME280;68277;52.724;6.516;2023-04-16T03:50:13;102136.38;;;7.50;92.69
78671;BME280;68277;52.724;6.516;2023-04-16T03:52:39;102185.84;;;7.77;92.17
78671;BME280;68277;52.724;6.516;2023-04-16T03:55:05;102140.75;;;7.48;92.07
78671;BME280;68277;52.724;6.516;2023-04-16T03:57:31;102147.81;;;7.52;92.86
78671;BME280;68277;52.724;6.516;2023-04-16T04:00:03;102195.50;;;7.76;92.51
78671;BME280;68277;52.724;6.516;2023-04-16T04:02:40;102192.88;;;7.76;91.55
78671;BME280;68277;52.724;6.516;2023-04-16T04:05:10;102161.06;;;7.58;90.45
78671;BME280;68277;52.724;6.516;2023-04-16T04:07:36;102195.50;;;7.78;91.13
78671;BME280;68277;52.724;6.516;2023-04-16T04:10:02;102193.72;;;7.74;91.23
78671;BME280;68277;52.724;6.516;2023-04-16T04:12:31;102156.59;;;7.51;91.49
78671;BME280;68277;52.724;6.516;2023-04-16T04:14:56;102183.97;;;7.65;92.23
78671;BME280;68277;52.724;6.516;2023-04-16T04:17:22;102150.38;;;7.46;90.62
78671;BME280;68277;52.724;6.516;2023-04-16T04:19:49;102205.16;;;7.74;91.19
78671;BME280;68277;52.724;6.516;2023-04-16T04:22:17;102198.94;;;7.69;91.67
78671;BME280;68277;52.724;6.516;2023-04-16T04:24:42;102163.53;;;7.44;92.02
78671;BME280;68277;52.724;6.516;2023-04-16T04:27:08;102209.53;;;7.72;91.50
78671;BME280;68277;52.724;6.516;2023-04-16T04:29:33;102202.41;;;7.65;91.26
78671;BME280;68277;52.724;6.516;2023-04-16T04:31:59;102225.34;;;7.75;92.66
78671;BME280;68277;52.724;6.516;2023-04-16T04:34:25;102213.84;;;7.67;91.66
78671;BME280;68277;52.724;6.516;2023-04-16T04:36:54;102198.84;;;7.60;91.40
78671;BME280;68277;52.724;6.516;2023-04-16T04:39:19;102178.50;;;7.48;92.74
78671;BME280;68277;52.724;6.516;2023-04-16T04:41:47;102190.84;;;7.52;92.08
78671;BME280;68277;52.724;6.516;2023-04-16T04:44:13;102201.47;;;7.60;92.01
78671;BME280;68277;52.724;6.516;2023-04-16T04:46:40;102230.66;;;7.77;92.72
78671;BME280;68277;52.724;6.516;2023-04-16T04:49:05;102225.28;;;7.69;92.08
78671;BME280;68277;52.724;6.516;2023-04-16T04:51:31;102182.84;;;7.43;90.94
78671;BME280;68277;52.724;6.516;2023-04-16T04:53:57;102182.88;;;7.46;92.22
78671;BME280;68277;52.724;6.516;2023-04-16T04:56:23;102206.78;;;7.65;91.42
78671;BME280;68277;52.724;6.516;2023-04-16T04:58:49;102239.47;;;7.80;92.39
78671;BME280;68277;52.724;6.516;2023-04-16T05:01:17;102195.25;;;7.55;91.88
78671;BME280;68277;52.724;6.516;2023-04-16T05:03:43;102195.25;;;7.55;92.02
78671;BME280;68277;52.724;6.516;2023-04-16T05:06:08;102191.75;;;7.54;91.36
78671;BME280;68277;52.724;6.516;2023-04-16T05:08:34;102256.25;;;7.88;91.90
78671;BME280;68277;52.724;6.516;2023-04-16T05:10:59;102195.22;;;7.52;91.37
78671;BME280;68277;52.724;6.516;2023-04-16T05:13:25;102258.00;;;7.89;92.43
78671;BME280;68277;52.724;6.516;2023-04-16T05:15:50;102242.09;;;7.80;92.05
78671;BME280;68277;52.724;6.516;2023-04-16T05:18:18;102242.19;;;7.86;91.54
78671;BME280;68277;52.724;6.516;2023-04-16T05:20:43;102234.28;;;7.86;91.25
78671;BME280;68277;52.724;6.516;2023-04-16T05:23:11;102261.66;;;8.00;91.38
78671;BME280;68277;52.724;6.516;2023-04-16T05:25:36;102230.75;;;7.86;91.34
78671;BME280;68277;52.724;6.516;2023-04-16T05:28:02;102239.56;;;7.89;91.99
78671;BME280;68277;52.724;6.516;2023-04-16T05:30:28;102256.34;;;7.99;91.59
78671;BME280;68277;52.724;6.516;2023-04-16T05:32:53;102254.56;;;7.95;92.33
78671;BME280;68277;52.724;6.516;2023-04-16T05:35:19;102267.84;;;8.02;91.45
78671;BME280;68277;52.724;6.516;2023-04-16T05:37:44;102267.00;;;8.05;91.32
78671;BME280;68277;52.724;6.516;2023-04-16T05:40:12;102231.66;;;7.88;91.38
78671;BME280;68277;52.724;6.516;2023-04-16T05:42:37;102271.41;;;8.07;90.66
78671;BME280;68277;52.724;6.516;2023-04-16T05:45:03;102280.22;;;8.09;91.42
78671;BME280;68277;52.724;6.516;2023-04-16T05:47:30;102267.03;;;8.11;90.42
78671;BME280;68277;52.724;6.516;2023-04-16T05:49:56;102255.59;;;8.09;91.00
78671;BME280;68277;52.724;6.516;2023-04-16T05:52:21;102268.91;;;8.22;90.74
78671;BME280;68277;52.724;6.516;2023-04-16T05:54:47;102247.72;;;8.15;90.59
78671;BME280;68277;52.724;6.516;2023-04-16T05:57:13;102236.19;;;8.02;90.51
78671;BME280;68277;52.724;6.516;2023-04-16T05:59:38;102263.63;;;8.21;90.41
78671;BME280;68277;52.724;6.516;2023-04-16T06:02:03;102273.34;;;8.25;90.56
78671;BME280;68277;52.724;6.516;2023-04-16T06:04:29;102264.53;;;8.21;90.69
78671;BME280;68277;52.724;6.516;2023-04-16T06:06:55;102275.88;;;8.17;90.05
78671;BME280;68277;52.724;6.516;2023-04-16T06:09:21;102294.50;;;8.27;90.20
78671;BME280;68277;52.724;6.516;2023-04-16T06:11:46;102261.72;;;8.06;90.16
78671;BME280;68277;52.724;6.516;2023-04-16T06:14:12;102288.22;;;8.20;90.20
78671;BME280;68277;52.724;6.516;2023-04-16T06:16:38;102264.41;;;8.11;89.80
78671;BME280;68277;52.724;6.516;2023-04-16T06:19:03;102275.97;;;8.23;90.35
78671;BME280;68277;52.724;6.516;2023-04-16T06:21:29;102269.09;;;8.38;90.22
78671;BME280;68277;52.724;6.516;2023-04-16T06:23:56;102271.84;;;8.50;89.55
78671;BME280;68277;52.724;6.516;2023-04-16T06:26:21;102285.19;;;8.68;89.44
78671;BME280;68277;52.724;6.516;2023-04-16T06:28:47;102252.53;;;8.54;88.56
78671;BME280;68277;52.724;6.516;2023-04-16T06:31:12;102268.44;;;8.61;88.90
78671;BME280;68277;52.724;6.516;2023-04-16T06:33:38;102244.59;;;8.49;87.88
78671;BME280;68277;52.724;6.516;2023-04-16T06:36:04;102282.66;;;8.78;88.15
78671;BME280;68277;52.724;6.516;2023-04-16T06:38:29;102297.69;;;8.88;87.78
78671;BME280;68277;52.724;6.516;2023-04-16T06:40:55;102292.44;;;8.93;87.67
78671;BME280;68277;52.724;6.516;2023-04-16T06:43:20;102296.94;;;9.09;87.19
78671;BME280;68277;52.724;6.516;2023-04-16T06:45:46;102310.25;;;9.21;86.80
78671;BME280;68277;52.724;6.516;2023-04-16T06:48:12;102276.66;;;8.99;86.42
78671;BME280;68277;52.724;6.516;2023-04-16T06:50:37;102325.25;;;9.25;86.72
78671;BME280;68277;52.724;6.516;2023-04-16T06:53:03;102308.41;;;9.07;86.87
78671;BME280;68277;52.724;6.516;2023-04-16T06:55:28;102318.00;;;9.00;86.49
78671;BME280;68277;52.724;6.516;2023-04-16T06:57:53;102313.56;;;8.90;87.29
78671;BME280;68277;52.724;6.516;2023-04-16T07:00:19;102305.63;;;8.90;87.10
78671;BME280;68277;52.724;6.516;2023-04-16T07:02:45;102312.00;;;9.24;86.94
78671;BME280;68277;52.724;6.516;2023-04-16T07:05:10;102316.50;;;9.34;86.05
78671;BME280;68277;52.724;6.516;2023-04-16T07:07:36;102291.81;;;9.32;85.73
78671;BME280;68277;52.724;6.516;2023-04-16T07:10:01;102313.97;;;9.53;85.64
78671;BME280;68277;52.724;6.516;2023-04-16T07:12:27;102287.53;;;9.52;85.40
78671;BME280;68277;52.724;6.516;2023-04-16T07:14:53;102313.16;;;9.67;84.78
78671;BME280;68277;52.724;6.516;2023-04-16T07:17:18;102322.06;;;9.90;84.50
78671;BME280;68277;52.724;6.516;2023-04-16T07:19:44;102346.00;;;10.14;83.85
78671;BME280;68277;52.724;6.516;2023-04-16T07:22:09;102310.75;;;10.19;82.89
78671;BME280;68277;52.724;6.516;2023-04-16T07:24:35;102332.84;;;10.53;82.79
78671;BME280;68277;52.724;6.516;2023-04-16T07:27:00;102320.50;;;10.43;81.61
78671;BME280;68277;52.724;6.516;2023-04-16T07:29:26;102326.66;;;10.35;80.72
78671;BME280;68277;52.724;6.516;2023-04-16T07:31:51;102293.06;;;10.15;80.79
78671;BME280;68277;52.724;6.516;2023-04-16T07:34:17;102334.63;;;10.51;83.09
78671;BME280;68277;52.724;6.516;2023-04-16T07:36:42;102345.25;;;11.06;80.59
78671;BME280;68277;52.724;6.516;2023-04-16T07:39:08;102357.59;;;11.29;79.69
78671;BME280;68277;52.724;6.516;2023-04-16T07:41:35;102323.09;;;11.46;80.42
78671;BME280;68277;52.724;6.516;2023-04-16T07:44:00;102340.78;;;11.51;79.63
78671;BME280;68277;52.724;6.516;2023-04-16T07:46:26;102347.84;;;11.46;79.92
78671;BME280;68277;52.724;6.516;2023-04-16T07:48:51;102308.16;;;11.10;80.72
78671;BME280;68277;52.724;6.516;2023-04-16T07:51:17;102322.28;;;11.18;79.73
78671;BME280;68277;52.724;6.516;2023-04-16T07:53:42;102336.38;;;11.40;80.74
78671;BME280;68277;52.724;6.516;2023-04-16T07:56:08;102356.63;;;11.63;79.40
78671;BME280;68277;52.724;6.516;2023-04-16T07:58:34;102354.88;;;11.72;74.80
78671;BME280;68277;52.724;6.516;2023-04-16T08:00:59;102301.94;;;11.29;77.35
78671;BME280;68277;52.724;6.516;2023-04-16T08:03:25;102354.94;;;11.22;78.67
78671;BME280;68277;52.724;6.516;2023-04-16T08:05:51;102312.59;;;10.91;80.12
78671;BME280;68277;52.724;6.516;2023-04-16T08:08:16;102367.34;;;11.18;80.54
78671;BME280;68277;52.724;6.516;2023-04-16T08:10:42;102302.88;;;10.84;80.55
78671;BME280;68277;52.724;6.516;2023-04-16T08:13:07;102333.75;;;11.10;79.45
78671;BME280;68277;52.724;6.516;2023-04-16T08:15:33;102347.91;;;11.13;79.89
78671;BME280;68277;52.724;6.516;2023-04-16T08:17:58;102360.25;;;11.08;80.64
78671;BME280;68277;52.724;6.516;2023-04-16T08:20:24;102361.13;;;11.06;80.18
78671;BME280;68277;52.724;6.516;2023-04-16T08:22:52;102372.63;;;10.98;80.15
78671;BME280;68277;52.724;6.516;2023-04-16T08:25:18;102350.53;;;10.63;80.46
78671;BME280;68277;52.724;6.516;2023-04-16T08:27:45;102348.75;;;10.56;81.02
78671;BME280;68277;52.724;6.516;2023-04-16T08:30:10;102359.34;;;10.65;81.73
78671;BME280;68277;52.724;6.516;2023-04-16T08:32:36;102367.28;;;10.70;81.47
78671;BME280;68277;52.724;6.516;2023-04-16T08:35:02;102390.28;;;10.89;80.88
78671;BME280;68277;52.724;6.516;2023-04-16T08:37:27;102386.75;;;10.87;80.95
78671;BME280;68277;52.724;6.516;2023-04-16T08:39:52;102369.06;;;10.75;80.40
78671;BME280;68277;52.724;6.516;2023-04-16T08:42:23;102399.13;;;10.94;80.47
78671;BME280;68277;52.724;6.516;2023-04-16T08:45:03;102388.50;;;10.82;80.42
78671;BME280;68277;52.724;6.516;2023-04-16T08:47:33;102406.19;;;10.95;80.19
78671;BME280;68277;52.724;6.516;2023-04-16T08:49:59;102413.25;;;11.05;80.48
78671;BME280;68277;52.724;6.516;2023-04-16T08:52:27;102358.50;;;10.83;79.79
78671;BME280;68277;52.724;6.516;2023-04-16T08:55:12;102354.94;;;10.84;79.46
78671;BME280;68277;52.724;6.516;2023-04-16T08:57:46;102355.81;;;10.90;79.27
78671;BME280;68277;52.724;6.516;2023-04-16T09:00:12;102408.72;;;11.99;77.11
78671;BME280;68277;52.724;6.516;2023-04-16T09:02:38;102396.19;;;12.38;75.54
78671;BME280;68277;52.724;6.516;2023-04-16T09:05:06;102409.47;;;12.38;76.33
78671;BME280;68277;52.724;6.516;2023-04-16T09:07:32;102354.88;;;11.68;77.67
78671;BME280;68277;52.724;6.516;2023-04-16T09:09:58;102415.88;;;11.72;75.81
78671;BME280;68277;52.724;6.516;2023-04-16T09:12:24;102403.53;;;11.51;78.07
78671;BME280;68277;52.724;6.516;2023-04-16T09:14:50;102384.09;;;11.31;77.55
78671;BME280;68277;52.724;6.516;2023-04-16T09:17:17;102413.22;;;11.64;78.03
78671;BME280;68277;52.724;6.516;2023-04-16T09:19:43;102408.78;;;11.78;76.92
78671;BME280;68277;52.724;6.516;2023-04-16T09:22:10;102400.81;;;11.86;77.66
78671;BME280;68277;52.724;6.516;2023-04-16T09:24:35;102409.63;;;11.98;77.58
78671;BME280;68277;52.724;6.516;2023-04-16T09:27:03;102417.56;;;12.04;77.08
78671;BME280;68277;52.724;6.516;2023-04-16T09:29:33;102414.00;;;12.14;76.67
78671;BME280;68277;52.724;6.516;2023-04-16T09:32:01;102408.66;;;12.20;75.77
78671;BME280;68277;52.724;6.516;2023-04-16T09:34:28;102359.22;;;11.97;75.67
78671;BME280;68277;52.724;6.516;2023-04-16T09:36:55;102403.34;;;12.26;76.12
78671;BME280;68277;52.724;6.516;2023-04-16T09:39:37;102410.41;;;12.29;76.39
78671;BME280;68277;52.724;6.516;2023-04-16T09:42:04;102432.47;;;12.40;76.92
78671;BME280;68277;52.724;6.516;2023-04-16T09:44:34;102398.09;;;12.13;74.36
78671;BME280;68277;52.724;6.516;2023-04-16T09:47:08;102430.75;;;12.22;73.99
78671;BME280;68277;52.724;6.516;2023-04-16T09:49:36;102384.88;;;11.96;74.69
78671;BME280;68277;52.724;6.516;2023-04-16T09:52:11;102384.88;;;12.01;75.08
78671;BME280;68277;52.724;6.516;2023-04-16T09:54:39;102389.19;;;12.26;75.71
78671;BME280;68277;52.724;6.516;2023-04-16T09:57:10;102409.03;;;13.10;72.65
78671;BME280;68277;52.724;6.516;2023-04-16T09:59:36;102419.81;;;13.89;71.80
78671;BME280;68277;52.724;6.516;2023-04-16T10:02:02;102396.16;;;14.41;70.70
78671;BME280;68277;52.724;6.516;2023-04-16T10:04:27;102424.22;;;14.66;68.57
78671;BME280;68277;52.724;6.516;2023-04-16T10:07:02;102406.88;;;14.97;65.60
78671;BME280;68277;52.724;6.516;2023-04-16T10:09:36;102413.81;;;15.59;65.07
78671;BME280;68277;52.724;6.516;2023-04-16T10:12:02;102380.75;;;16.12;65.85
78671;BME280;68277;52.724;6.516;2023-04-16T10:14:28;102414.34;;;16.65;63.25
78671;BME280;68277;52.724;6.516;2023-04-16T10:16:58;102413.63;;;16.59;58.71
78671;BME280;68277;52.724;6.516;2023-04-16T10:19:24;102371.44;;;16.30;65.95
78671;BME280;68277;52.724;6.516;2023-04-16T10:21:50;102389.75;;;16.08;64.83
78671;BME280;68277;52.724;6.516;2023-04-16T10:24:16;102423.50;;;16.55;63.51
78671;BME280;68277;52.724;6.516;2023-04-16T10:26:46;102420.13;;;17.22;58.03
78671;BME280;68277;52.724;6.516;2023-04-16T10:29:14;102403.50;;;17.78;55.87
78671;BME280;68277;52.724;6.516;2023-04-16T10:31:40;102412.69;;;17.35;59.06
78671;BME280;68277;52.724;6.516;2023-04-16T10:34:08;102405.00;;;16.84;61.10
78671;BME280;68277;52.724;6.516;2023-04-16T10:36:37;102378.97;;;16.56;62.21
78671;BME280;68277;52.724;6.516;2023-04-16T10:39:09;102410.03;;;16.60;61.77
78671;BME280;68277;52.724;6.516;2023-04-16T10:41:35;102400.88;;;16.28;61.13
78671;BME280;68277;52.724;6.516;2023-04-16T10:44:05;102413.00;;;16.44;58.77
78671;BME280;68277;52.724;6.516;2023-04-16T10:46:38;102413.50;;;16.65;59.18
78671;BME280;68277;52.724;6.516;2023-04-16T10:49:18;102411.63;;;16.68;60.77
78671;BME280;68277;52.724;6.516;2023-04-16T10:51:58;102405.22;;;16.75;59.48
78671;BME280;68277;52.724;6.516;2023-04-16T10:54:30;102408.84;;;16.73;57.28
78671;BME280;68277;52.724;6.516;2023-04-16T10:56:58;102381.03;;;16.40;57.67
78671;BME280;68277;52.724;6.516;2023-04-16T10:59:29;102385.00;;;16.64;57.55
78671;BME280;68277;52.724;6.516;2023-04-16T11:01:58;102394.00;;;16.60;57.33
78671;BME280;68277;52.724;6.516;2023-04-16T11:04:27;102382.88;;;16.38;58.36
78671;BME280;68277;52.724;6.516;2023-04-16T11:12:20;102382.81;;;16.41;58.04
78671;BME280;68277;52.724;6.516;2023-04-16T11:14:48;102410.06;;;16.58;58.17
78671;BME280;68277;52.724;6.516;2023-04-16T11:17:14;102396.78;;;16.55;58.27
78671;BME280;68277;52.724;6.516;2023-04-16T11:19:41;102385.34;;;16.47;58.33
78671;BME280;68277;52.724;6.516;2023-04-16T11:22:07;102395.59;;;16.25;58.20
78671;BME280;68277;52.724;6.516;2023-04-16T11:24:33;102396.75;;;16.14;58.93
78671;BME280;68277;52.724;6.516;2023-04-16T11:26:59;102404.06;;;16.04;58.17
78671;BME280;68277;52.724;6.516;2023-04-16T11:29:24;102392.94;;;15.83;59.00
78671;BME280;68277;52.724;6.516;2023-04-16T11:31:52;102378.53;;;15.91;58.23
78671;BME280;68277;52.724;6.516;2023-04-16T11:34:19;102356.59;;;15.74;59.90
78671;BME280;68277;52.724;6.516;2023-04-16T11:36:50;102372.09;;;16.01;58.66
78671;BME280;68277;52.724;6.516;2023-04-16T11:39:16;102407.22;;;16.24;58.63
78671;BME280;68277;52.724;6.516;2023-04-16T11:41:47;102352.59;;;15.96;58.12
78671;BME280;68277;52.724;6.516;2023-04-16T11:44:21;102414.19;;;16.31;58.77
78671;BME280;68277;52.724;6.516;2023-04-16T11:46:47;102395.00;;;16.13;59.46
78671;BME280;68277;52.724;6.516;2023-04-16T11:49:13;102400.91;;;15.84;60.24
78671;BME280;68277;52.724;6.516;2023-04-16T11:51:41;102403.84;;;15.69;60.78
78671;BME280;68277;52.724;6.516;2023-04-16T11:54:06;102410.97;;;15.70;61.07
78671;BME280;68277;52.724;6.516;2023-04-16T11:56:34;102386.31;;;15.56;61.34
78671;BME280;68277;52.724;6.516;2023-04-16T12:01:37;102387.38;;;15.46;61.10
78671;BME280;68277;52.724;6.516;2023-04-16T12:04:03;102399.13;;;15.34;61.28
78671;BME280;68277;52.724;6.516;2023-04-16T12:06:28;102409.00;;;15.31;62.20
78671;BME280;68277;52.724;6.516;2023-04-16T12:08:56;102412.59;;;15.28;62.23
78671;BME280;68277;52.724;6.516;2023-04-16T12:11:40;102413.44;;;15.30;61.74
78671;BME280;68277;52.724;6.516;2023-04-16T12:14:10;102410.59;;;15.39;61.60
78671;BME280;68277;52.724;6.516;2023-04-16T12:16:36;102371.78;;;15.23;61.49
78671;BME280;68277;52.724;6.516;2023-04-16T12:19:03;102420.25;;;15.48;62.30
78671;BME280;68277;52.724;6.516;2023-04-16T12:21:39;102414.13;;;15.41;61.93
78671;BME280;68277;52.724;6.516;2023-04-16T12:24:06;102420.34;;;15.45;62.37
78671;BME280;68277;52.724;6.516;2023-04-16T12:26:35;102419.97;;;15.64;61.34
78671;BME280;68277;52.724;6.516;2023-04-16T12:29:36;102419.88;;;15.69;61.77
78671;BME280;68277;52.724;6.516;2023-04-16T12:32:02;102420.97;;;15.59;62.09
78671;BME280;68277;52.724;6.516;2023-04-16T12:34:28;102420.81;;;15.68;62.21
78671;BME280;68277;52.724;6.516;2023-04-16T12:37:06;102400.66;;;15.50;62.11
78671;BME280;68277;52.724;6.516;2023-04-16T12:39:33;102422.13;;;15.41;62.30
78671;BME280;68277;52.724;6.516;2023-04-16T12:41:59;102423.25;;;15.28;62.38
78671;BME280;68277;52.724;6.516;2023-04-16T12:44:25;102398.69;;;15.10;62.82
78671;BME280;68277;52.724;6.516;2023-04-16T12:46:52;102398.81;;;14.99;62.87
78671;BME280;68277;52.724;6.516;2023-04-16T12:49:17;102395.13;;;15.07;62.72
78671;BME280;68277;52.724;6.516;2023-04-16T12:52:04;102414.31;;;15.31;60.64
78671;BME280;68277;52.724;6.516;2023-04-16T12:54:30;102426.94;;;15.71;61.75
78671;BME280;68277;52.724;6.516;2023-04-16T12:56:56;102397.56;;;15.73;61.47
78671;BME280;68277;52.724;6.516;2023-04-16T12:59:22;102425.50;;;16.01;61.74
78671;BME280;68277;52.724;6.516;2023-04-16T13:01:48;102427.16;;;16.07;61.17